createdAt,value
2023-05-11T00:00:22.094Z,55.44
2023-05-11T00:02:03.428Z,54.47
2023-05-11T00:03:44.847Z,53.61
2023-05-11T00:05:26.189Z,53.31
2023-05-11T00:07:07.481Z,53.75
2023-05-11T00:08:48.854Z,53.20
2023-05-11T00:10:30.132Z,52.64
2023-05-11T00:12:11.410Z,53.74
2023-05-11T00:13:52.717Z,55.31
2023-05-11T00:15:34.019Z,54.87
2023-05-11T00:17:15.332Z,55.24
2023-05-11T00:18:56.710Z,56.01
2023-05-11T00:20:38.054Z,55.57
2023-05-11T00:22:19.374Z,56.60
2023-05-11T00:24:00.666Z,56.54
2023-05-11T00:25:42.189Z,57.20
2023-05-11T00:27:23.532Z,57.75
2023-05-11T00:29:04.814Z,57.48
2023-05-11T00:30:46.140Z,56.56
2023-05-11T00:32:27.451Z,55.80
2023-05-11T00:34:08.764Z,56.12
2023-05-11T00:35:50.063Z,56.38
2023-05-11T00:37:31.356Z,56.13
2023-05-11T00:39:12.649Z,55.65
2023-05-11T00:40:53.939Z,56.00
2023-05-11T00:42:35.281Z,55.27
2023-05-11T00:44:16.567Z,54.65
2023-05-11T00:45:57.840Z,54.60
2023-05-11T00:47:39.135Z,53.74
2023-05-11T00:49:20.458Z,53.72
2023-05-11T00:51:01.733Z,53.73
2023-05-11T00:52:43.020Z,52.57
2023-05-11T00:54:24.361Z,51.97
2023-05-11T00:56:05.626Z,52.35
2023-05-11T00:57:46.904Z,52.62
2023-05-11T00:59:28.237Z,53.15
2023-05-11T01:01:09.564Z,52.68
2023-05-11T01:02:51.037Z,53.63
2023-05-11T01:04:32.426Z,53.92
2023-05-11T01:06:13.792Z,53.81
2023-05-11T01:07:55.101Z,53.54
2023-05-11T01:09:36.445Z,53.39
2023-05-11T01:11:17.798Z,53.49
2023-05-11T01:12:59.126Z,53.25
2023-05-11T01:14:40.419Z,53.12
2023-05-11T01:16:21.765Z,54.79
2023-05-11T01:18:03.195Z,54.21
2023-05-11T01:19:44.523Z,53.76
2023-05-11T01:21:25.843Z,53.24
2023-05-11T01:23:07.209Z,52.88
2023-05-11T01:24:48.607Z,52.83
2023-05-11T01:26:29.950Z,52.30
2023-05-11T01:28:11.338Z,51.88
2023-05-11T01:29:52.776Z,52.05
2023-05-11T01:31:34.063Z,52.08
2023-05-11T01:33:15.518Z,52.41
2023-05-11T01:34:56.923Z,52.91
2023-05-11T01:36:38.272Z,52.76
2023-05-11T01:38:19.568Z,53.45
2023-05-11T01:40:00.928Z,54.28
2023-05-11T01:41:42.246Z,55.35
2023-05-11T01:43:23.560Z,55.03
2023-05-11T01:45:04.898Z,54.00
2023-05-11T01:46:46.245Z,54.11
2023-05-11T01:48:27.537Z,54.14
2023-05-11T01:50:08.855Z,53.63
2023-05-11T01:51:50.159Z,53.53
2023-05-11T01:53:31.515Z,53.13
2023-05-11T01:55:12.851Z,52.65
2023-05-11T01:56:54.155Z,52.12
2023-05-11T01:58:35.480Z,52.59
2023-05-11T02:00:16.958Z,53.08
2023-05-11T02:01:58.571Z,53.09
2023-05-11T02:03:39.967Z,52.76
2023-05-11T02:05:21.393Z,52.67
2023-05-11T02:07:02.715Z,52.94
2023-05-11T02:08:44.005Z,53.48
2023-05-11T02:10:25.352Z,54.44
2023-05-11T02:12:06.691Z,54.51
2023-05-11T02:13:47.987Z,55.07
2023-05-11T02:15:29.315Z,55.31
2023-05-11T02:17:10.615Z,54.88
2023-05-11T02:18:51.980Z,55.55
2023-05-11T02:20:33.299Z,55.63
2023-05-11T02:22:14.637Z,55.86
2023-05-11T02:23:55.954Z,57.05
2023-05-11T02:25:37.337Z,55.00
2023-05-11T02:27:18.672Z,54.66
2023-05-11T02:28:59.959Z,54.34
2023-05-11T02:30:41.284Z,55.01
2023-05-11T02:32:22.726Z,54.74
2023-05-11T02:34:04.070Z,54.04
2023-05-11T02:35:45.415Z,54.01
2023-05-11T02:37:26.702Z,55.50
2023-05-11T02:39:08.066Z,55.99
2023-05-11T02:40:49.415Z,56.57
2023-05-11T02:42:30.744Z,57.46
2023-05-11T02:44:14.793Z,57.06
2023-05-11T02:45:56.117Z,58.49
2023-05-11T02:47:37.550Z,58.66
2023-05-11T02:49:18.914Z,58.04
2023-05-11T02:51:00.231Z,59.09
2023-05-11T02:52:41.566Z,58.57
2023-05-11T02:54:23.065Z,56.76
2023-05-11T02:56:04.454Z,55.63
2023-05-11T02:57:45.857Z,55.25
2023-05-11T02:59:27.192Z,53.71
2023-05-11T03:01:08.598Z,53.51
2023-05-11T03:02:50.107Z,53.93
2023-05-11T03:04:31.430Z,53.57
2023-05-11T03:06:12.724Z,54.07
2023-05-11T03:07:53.993Z,54.38
2023-05-11T03:09:35.295Z,54.19
2023-05-11T03:11:16.698Z,53.75
2023-05-11T03:12:58.035Z,53.57
2023-05-11T03:14:39.337Z,54.10
2023-05-11T03:16:21.424Z,54.18
2023-05-11T03:18:02.981Z,54.71
2023-05-11T03:19:44.321Z,54.35
2023-05-11T03:21:25.660Z,54.57
2023-05-11T03:23:07.511Z,53.91
2023-05-11T03:24:48.809Z,53.33
2023-05-11T03:26:30.184Z,53.77
2023-05-11T03:28:11.468Z,53.06
2023-05-11T03:29:52.757Z,54.77
2023-05-11T03:31:34.150Z,55.61
2023-05-11T03:33:15.497Z,56.14
2023-05-11T03:34:56.827Z,55.44
2023-05-11T03:36:38.193Z,55.06
2023-05-11T03:38:19.529Z,55.90
2023-05-11T03:40:00.843Z,55.95
2023-05-11T03:41:42.173Z,56.59
2023-05-11T03:43:23.540Z,56.94
2023-05-11T03:45:04.954Z,57.79
2023-05-11T03:46:46.251Z,57.98
2023-05-11T03:48:27.599Z,58.53
2023-05-11T03:50:08.980Z,57.99
2023-05-11T03:51:50.299Z,58.16
2023-05-11T03:53:31.636Z,58.12
2023-05-11T03:55:12.956Z,57.79
2023-05-11T03:56:54.322Z,56.93
2023-05-11T03:58:35.673Z,56.20
2023-05-11T04:00:17.213Z,55.98
2023-05-11T04:01:58.824Z,55.39
2023-05-11T04:03:40.251Z,54.54
2023-05-11T04:05:21.652Z,55.88
2023-05-11T04:07:02.939Z,56.58
2023-05-11T04:08:44.287Z,58.09
2023-05-11T04:10:25.657Z,58.46
2023-05-11T04:12:06.986Z,57.96
2023-05-11T04:13:48.332Z,59.35
2023-05-11T04:15:29.666Z,59.07
2023-05-11T04:17:10.979Z,58.86
2023-05-11T04:18:52.418Z,59.62
2023-05-11T04:20:33.789Z,60.43
2023-05-11T04:22:15.104Z,59.79
2023-05-11T04:23:56.436Z,59.27
2023-05-11T04:25:37.785Z,57.70
2023-05-11T04:27:19.069Z,57.17
2023-05-11T04:29:00.358Z,56.31
2023-05-11T04:30:41.658Z,57.30
2023-05-11T04:32:22.992Z,57.11
2023-05-11T04:34:04.280Z,57.69
2023-05-11T04:35:45.588Z,57.64
2023-05-11T04:37:26.952Z,58.47
2023-05-11T04:39:08.328Z,57.23
2023-05-11T04:40:49.609Z,57.45
2023-05-11T04:42:30.902Z,57.77
2023-05-11T04:44:12.206Z,57.98
2023-05-11T04:45:53.492Z,57.69
2023-05-11T04:47:34.866Z,56.72
2023-05-11T04:49:16.248Z,56.45
2023-05-11T04:50:57.512Z,56.20
2023-05-11T04:52:38.839Z,55.63
2023-05-11T04:54:20.244Z,56.14
2023-05-11T04:56:01.545Z,55.78
2023-05-11T04:57:42.840Z,54.76
2023-05-11T04:59:24.232Z,55.40
2023-05-11T05:01:05.576Z,54.93
2023-05-11T05:02:46.999Z,53.80
2023-05-11T05:04:28.379Z,52.82
2023-05-11T05:06:09.659Z,52.75
2023-05-11T05:07:50.970Z,52.44
2023-05-11T05:09:32.255Z,51.44
2023-05-11T05:11:13.561Z,51.23
2023-05-11T05:12:54.861Z,51.77
2023-05-11T05:14:36.211Z,52.49
2023-05-11T05:16:17.575Z,53.05
2023-05-11T05:17:58.967Z,52.98
2023-05-11T05:19:40.283Z,52.47
2023-05-11T05:21:21.594Z,52.17
2023-05-11T05:23:02.904Z,51.28
2023-05-11T05:24:44.199Z,51.04
2023-05-11T05:26:25.509Z,50.49
2023-05-11T05:28:06.790Z,50.29
2023-05-11T05:29:48.073Z,49.80
2023-05-11T05:31:29.508Z,50.31
2023-05-11T05:33:10.955Z,50.46
2023-05-11T05:34:52.317Z,49.59
2023-05-11T05:36:33.621Z,49.99
2023-05-11T05:38:14.944Z,49.82
2023-05-11T05:39:56.263Z,50.19
2023-05-11T05:41:37.572Z,50.31
2023-05-11T05:43:18.873Z,49.91
2023-05-11T05:45:00.154Z,49.98
2023-05-11T05:46:41.517Z,49.99
2023-05-11T05:48:22.832Z,49.46
2023-05-11T05:50:04.122Z,49.87
2023-05-11T05:51:45.398Z,49.05
2023-05-11T05:53:26.687Z,49.22
2023-05-11T05:55:07.967Z,48.54
2023-05-11T05:56:49.283Z,48.36
2023-05-11T05:58:30.635Z,47.88
2023-05-11T06:00:11.973Z,47.39
2023-05-11T06:01:53.267Z,47.34
2023-05-11T06:03:34.732Z,46.89
2023-05-11T06:05:16.137Z,46.84
2023-05-11T06:06:57.437Z,46.71
2023-05-11T06:08:38.752Z,47.85
2023-05-11T06:10:20.781Z,48.84
2023-05-11T06:12:02.338Z,49.66
2023-05-11T06:13:43.675Z,49.33
2023-05-11T06:15:25.010Z,50.27
2023-05-11T06:17:06.332Z,50.75
2023-05-11T06:18:47.654Z,49.71
2023-05-11T06:20:28.981Z,48.60
2023-05-11T06:22:10.265Z,50.17
2023-05-11T06:23:51.545Z,49.93
2023-05-11T06:25:32.845Z,50.05
2023-05-11T06:27:15.466Z,49.51
2023-05-11T06:28:58.697Z,49.14
2023-05-11T06:30:40.001Z,50.89
2023-05-11T06:32:21.309Z,51.11
2023-05-11T06:34:02.592Z,51.76
2023-05-11T06:35:43.921Z,51.39
2023-05-11T06:37:25.205Z,50.73
2023-05-11T06:39:06.496Z,50.92
2023-05-11T06:40:47.819Z,50.26
2023-05-11T06:42:29.096Z,50.60
2023-05-11T06:44:10.382Z,50.97
2023-05-11T06:45:51.773Z,49.64
2023-05-11T06:47:33.250Z,47.96
2023-05-11T06:49:14.634Z,46.91
2023-05-11T06:50:56.004Z,47.91
2023-05-11T06:52:37.339Z,48.53
2023-05-11T06:54:18.684Z,47.95
2023-05-11T06:56:00.016Z,47.94
2023-05-11T06:57:41.343Z,46.67
2023-05-11T06:59:22.639Z,47.38
2023-05-11T07:01:03.955Z,47.73
2023-05-11T07:02:45.295Z,46.92
2023-05-11T07:04:26.697Z,48.56
2023-05-11T07:06:08.084Z,48.77
2023-05-11T07:07:49.398Z,48.68
2023-05-11T07:09:30.722Z,47.45
2023-05-11T07:11:12.029Z,47.31
2023-05-11T07:12:53.303Z,46.19
2023-05-11T07:14:34.588Z,47.43
2023-05-11T07:16:15.951Z,47.67
2023-05-11T07:17:57.361Z,48.09
2023-05-11T07:19:38.756Z,48.60
2023-05-11T07:21:20.044Z,46.82
2023-05-11T07:23:01.349Z,46.84
2023-05-11T07:24:42.672Z,47.70
2023-05-11T07:26:24.028Z,47.85
2023-05-11T07:28:05.376Z,46.75
2023-05-11T07:29:46.693Z,48.72
2023-05-11T07:31:28.049Z,48.14
2023-05-11T07:33:09.450Z,49.08
2023-05-11T07:34:50.797Z,49.34
2023-05-11T07:36:32.175Z,48.58
2023-05-11T07:38:13.481Z,47.93
2023-05-11T07:39:54.777Z,47.69
2023-05-11T07:41:36.064Z,47.69
2023-05-11T07:43:17.375Z,47.63
2023-05-11T07:44:58.688Z,48.13
2023-05-11T07:46:40.064Z,48.54
2023-05-11T07:48:21.435Z,48.17
2023-05-11T07:50:02.792Z,48.15
2023-05-11T07:51:44.140Z,48.13
2023-05-11T07:53:25.444Z,49.11
2023-05-11T07:55:06.757Z,49.03
2023-05-11T07:56:49.224Z,48.35
2023-05-11T07:58:30.538Z,48.82
2023-05-11T08:00:11.858Z,48.74
2023-05-11T08:01:53.167Z,49.77
2023-05-11T08:03:34.624Z,47.44
2023-05-11T08:05:16.122Z,47.06
2023-05-11T08:06:57.628Z,48.24
2023-05-11T08:08:38.935Z,47.94
2023-05-11T08:10:20.450Z,48.24
2023-05-11T08:12:01.774Z,47.42
2023-05-11T08:13:43.270Z,48.16
2023-05-11T08:15:24.583Z,47.80
2023-05-11T08:17:05.905Z,47.05
2023-05-11T08:18:47.260Z,48.04
2023-05-11T08:20:28.734Z,47.49
2023-05-11T08:22:10.158Z,48.08
2023-05-11T08:23:51.431Z,48.88
2023-05-11T08:25:32.753Z,47.89
2023-05-11T08:27:14.098Z,48.77
2023-05-11T08:28:55.404Z,49.41
2023-05-11T08:30:36.703Z,50.81
2023-05-11T08:32:18.027Z,50.85
2023-05-11T08:33:59.402Z,51.45
2023-05-11T08:35:40.694Z,51.12
2023-05-11T08:37:22.040Z,51.60
2023-05-11T08:39:03.356Z,51.32
2023-05-11T08:40:44.641Z,51.59
2023-05-11T08:42:25.933Z,51.97
2023-05-11T08:44:07.287Z,52.36
2023-05-11T08:45:48.594Z,52.68
2023-05-11T08:47:29.959Z,53.15
2023-05-11T08:49:11.243Z,53.12
2023-05-11T08:50:52.545Z,52.91
2023-05-11T08:52:33.920Z,52.61
2023-05-11T08:54:15.233Z,51.97
2023-05-11T08:55:56.539Z,50.29
2023-05-11T08:57:37.817Z,49.07
2023-05-11T08:59:19.089Z,50.76
2023-05-11T09:01:00.416Z,49.51
2023-05-11T09:02:41.744Z,52.26
2023-05-11T09:04:23.114Z,51.57
2023-05-11T09:06:04.407Z,51.38
2023-05-11T09:07:45.693Z,52.31
2023-05-11T09:09:27.021Z,51.56
2023-05-11T09:11:08.348Z,53.25
2023-05-11T09:12:49.683Z,50.16
2023-05-11T09:14:30.994Z,52.25
2023-05-11T09:16:23.666Z,49.36
2023-05-11T09:18:13.624Z,47.66
2023-05-11T09:19:54.991Z,46.86
2023-05-11T09:21:36.274Z,46.48
2023-05-11T09:23:17.596Z,47.51
2023-05-11T09:24:58.955Z,46.92
2023-05-11T09:26:40.315Z,47.98
2023-05-11T09:28:25.604Z,46.87
2023-05-11T09:30:07.195Z,49.48
2023-05-11T09:31:48.632Z,47.17
2023-05-11T09:33:30.064Z,46.77
2023-05-11T09:35:11.378Z,47.58
2023-05-11T09:36:52.710Z,48.00
2023-05-11T09:38:33.999Z,46.90
2023-05-11T09:40:26.921Z,46.62
2023-05-11T09:42:08.825Z,48.75
2023-05-11T09:43:50.152Z,47.82
2023-05-11T09:45:31.563Z,46.99
2023-05-11T09:47:13.001Z,47.59
2023-05-11T09:48:54.483Z,50.03
2023-05-11T09:50:35.787Z,50.12
2023-05-11T09:52:17.166Z,48.34
2023-05-11T09:53:58.480Z,48.51
2023-05-11T09:55:39.795Z,49.82
2023-05-11T09:57:21.136Z,47.68
2023-05-11T09:59:02.453Z,47.16
2023-05-11T10:00:43.771Z,49.17
2023-05-11T10:02:25.201Z,48.58
2023-05-11T10:04:22.231Z,50.45
2023-05-11T10:06:04.952Z,53.19
2023-05-11T10:07:46.247Z,50.98
2023-05-11T10:09:27.547Z,52.29
2023-05-11T10:11:08.885Z,52.65
2023-05-11T10:12:50.204Z,48.41
2023-05-11T10:14:31.504Z,48.76
2023-05-11T10:16:12.858Z,48.70
2023-05-11T10:17:54.317Z,47.46
2023-05-11T10:19:35.664Z,44.26
2023-05-11T10:21:16.990Z,45.78
2023-05-11T10:22:58.347Z,43.71
2023-05-11T10:24:39.838Z,44.80
2023-05-11T10:26:21.201Z,45.16
2023-05-11T10:28:02.533Z,47.39
2023-05-11T10:29:43.817Z,47.17
2023-05-11T10:31:25.150Z,45.40
2023-05-11T10:33:06.533Z,45.61
2023-05-11T10:34:47.910Z,45.58
2023-05-11T10:36:29.223Z,45.28
2023-05-11T10:38:10.528Z,44.38
2023-05-11T10:39:52.496Z,47.18
2023-05-11T10:41:34.090Z,48.07
2023-05-11T10:43:15.365Z,48.71
2023-05-11T10:44:56.682Z,46.97
2023-05-11T10:46:37.984Z,49.09
2023-05-11T10:48:19.314Z,48.60
2023-05-11T10:50:00.762Z,50.67
2023-05-11T10:51:42.108Z,52.01
2023-05-11T10:53:23.672Z,51.92
2023-05-11T10:55:05.150Z,51.58
2023-05-11T10:56:46.713Z,51.79
2023-05-11T10:58:28.237Z,51.70
2023-05-11T11:00:09.889Z,53.93
2023-05-11T11:01:51.547Z,55.59
2023-05-11T11:03:32.876Z,55.06
2023-05-11T11:05:14.227Z,56.90
2023-05-11T11:06:55.946Z,55.92
2023-05-11T11:08:37.362Z,54.35
2023-05-11T11:10:18.840Z,52.97
2023-05-11T11:12:00.509Z,52.43
2023-05-11T11:13:42.033Z,51.57
2023-05-11T11:15:23.356Z,48.31
2023-05-11T11:17:04.708Z,47.29
2023-05-11T11:18:46.364Z,47.70
2023-05-11T11:20:27.987Z,47.83
2023-05-11T11:22:09.287Z,46.60
2023-05-11T11:23:50.822Z,50.96
2023-05-11T11:25:32.549Z,50.50
2023-05-11T11:27:13.971Z,50.09
2023-05-11T11:28:55.285Z,48.40
2023-05-11T11:30:36.905Z,50.00
2023-05-11T11:32:18.389Z,48.34
2023-05-11T11:33:59.667Z,48.38
2023-05-11T11:35:41.081Z,47.61
2023-05-11T11:37:22.475Z,47.01
2023-05-11T11:39:03.803Z,45.66
2023-05-11T11:42:30.086Z,46.01
2023-05-11T11:44:11.374Z,49.64
2023-05-11T11:45:52.725Z,51.31
2023-05-11T11:47:34.049Z,51.58
2023-05-11T11:49:15.342Z,52.75
2023-05-11T11:50:56.644Z,54.03
2023-05-11T11:52:37.948Z,56.02
2023-05-11T11:54:19.236Z,55.34
2023-05-11T11:56:01.175Z,53.80
2023-05-11T11:57:42.451Z,52.63
2023-05-11T11:59:24.157Z,53.23
2023-05-11T12:01:05.709Z,53.51
2023-05-11T12:02:47.341Z,53.79
2023-05-11T12:04:29.026Z,53.61
2023-05-11T12:06:10.438Z,53.72
2023-05-11T12:07:51.720Z,55.67
2023-05-11T12:09:33.126Z,55.60
2023-05-11T12:11:14.741Z,54.85
2023-05-11T12:12:57.896Z,55.10
2023-05-11T12:14:40.616Z,54.91
2023-05-11T12:16:21.963Z,54.34
2023-05-11T12:18:03.372Z,55.38
2023-05-11T12:19:44.826Z,53.79
2023-05-11T12:21:26.809Z,53.31
2023-05-11T12:23:08.475Z,50.60
2023-05-11T12:24:49.996Z,51.25
2023-05-11T12:26:31.512Z,50.79
2023-05-11T12:28:12.966Z,50.34
2023-05-11T12:29:54.281Z,50.31
2023-05-11T12:31:35.760Z,51.74
2023-05-11T12:33:17.090Z,50.24
2023-05-11T12:34:58.418Z,47.94
2023-05-11T12:36:39.850Z,50.80
2023-05-11T12:38:21.386Z,49.24
2023-05-11T12:40:02.864Z,49.20
2023-05-11T12:41:44.363Z,47.96
2023-05-11T12:43:25.753Z,46.50
2023-05-11T12:45:07.292Z,49.26
2023-05-11T12:46:48.832Z,48.92
2023-05-11T12:48:30.376Z,48.12
2023-05-11T12:50:11.926Z,46.59
2023-05-11T12:51:53.237Z,46.21
2023-05-11T12:53:34.722Z,47.45
2023-05-11T12:55:17.268Z,46.91
2023-05-11T12:56:58.735Z,46.10
2023-05-11T12:58:40.210Z,45.99
2023-05-11T13:00:21.931Z,46.43
2023-05-11T13:02:03.356Z,46.23
2023-05-11T13:03:45.054Z,46.54
2023-05-11T13:05:29.036Z,45.85
2023-05-11T13:07:10.530Z,47.05
2023-05-11T13:08:51.999Z,49.09
2023-05-11T13:10:33.312Z,49.08
2023-05-11T13:12:14.606Z,47.88
2023-05-11T13:13:56.013Z,51.14
2023-05-11T13:15:37.451Z,53.61
2023-05-11T13:17:18.838Z,56.26
2023-05-11T13:19:00.923Z,56.27
2023-05-11T13:20:42.638Z,56.01
2023-05-11T13:22:24.052Z,57.31
2023-05-11T13:24:05.363Z,58.15
2023-05-11T13:25:46.679Z,59.17
2023-05-11T13:27:27.973Z,58.19
2023-05-11T13:29:10.931Z,59.30
2023-05-11T13:30:53.193Z,58.24
2023-05-11T13:32:34.680Z,57.06
2023-05-11T13:34:15.955Z,56.40
2023-05-11T13:35:57.375Z,55.55
2023-05-11T13:37:38.715Z,54.20
2023-05-11T13:39:20.227Z,55.11
2023-05-11T13:41:01.950Z,54.72
2023-05-11T13:42:43.516Z,54.14
2023-05-11T13:44:24.872Z,54.18
2023-05-11T13:46:06.172Z,52.98
2023-05-11T13:47:47.554Z,51.16
2023-05-11T13:49:28.929Z,50.72
2023-05-11T13:51:10.943Z,50.59
2023-05-11T13:52:52.427Z,47.73
2023-05-11T13:54:33.901Z,49.18
2023-05-11T13:56:15.211Z,51.37
2023-05-11T13:57:56.818Z,51.85
2023-05-11T13:59:38.633Z,54.95
2023-05-11T14:01:20.242Z,53.44
2023-05-11T14:03:01.926Z,52.76
2023-05-11T14:04:43.346Z,53.73
2023-05-11T14:06:24.660Z,54.07
2023-05-11T14:08:06.010Z,53.06
2023-05-11T14:09:47.359Z,51.83
2023-05-11T14:11:28.640Z,50.97
2023-05-11T14:13:10.604Z,53.85
2023-05-11T14:14:52.146Z,58.42
2023-05-11T14:16:33.649Z,58.59
2023-05-11T14:18:15.325Z,58.97
2023-05-11T14:19:56.688Z,60.60
2023-05-11T14:21:37.975Z,61.42
2023-05-11T14:23:19.270Z,59.92
2023-05-11T14:25:00.582Z,59.08
2023-05-11T14:26:41.943Z,59.05
2023-05-11T14:28:23.253Z,57.89
2023-05-11T14:30:05.032Z,56.78
2023-05-11T14:31:46.552Z,55.80
2023-05-11T14:33:28.100Z,54.87
2023-05-11T14:35:09.586Z,53.73
2023-05-11T14:36:51.164Z,52.38
2023-05-11T14:38:32.696Z,52.48
2023-05-11T14:40:14.210Z,52.25
2023-05-11T14:41:55.541Z,51.96
2023-05-11T14:43:36.915Z,52.13
2023-05-11T14:45:18.838Z,51.65
2023-05-11T14:47:00.507Z,53.22
2023-05-11T14:48:42.051Z,51.61
2023-05-11T14:50:23.590Z,51.17
2023-05-11T14:52:04.939Z,51.11
2023-05-11T14:53:46.246Z,50.56
2023-05-11T14:55:27.555Z,50.71
2023-05-11T14:57:09.014Z,50.90
2023-05-11T14:58:50.431Z,50.09
2023-05-11T15:00:31.719Z,50.54
2023-05-11T15:02:13.271Z,52.34
2023-05-11T15:03:54.852Z,52.60
2023-05-11T15:05:36.167Z,51.90
2023-05-11T15:07:17.686Z,51.47
2023-05-11T15:08:59.202Z,51.47
2023-05-11T15:10:40.569Z,52.67
2023-05-11T15:12:21.861Z,54.21
2023-05-11T15:14:03.219Z,53.15
2023-05-11T15:15:46.934Z,52.76
2023-05-11T15:17:28.501Z,53.80
2023-05-11T15:19:09.888Z,55.41
2023-05-11T15:20:51.278Z,54.75
2023-05-11T15:22:32.566Z,56.78
2023-05-11T15:24:13.858Z,56.53
2023-05-11T15:25:55.170Z,55.83
2023-05-11T15:27:36.476Z,55.34
2023-05-11T15:29:18.048Z,56.00
2023-05-11T15:30:59.747Z,56.75
2023-05-11T15:32:41.245Z,56.34
2023-05-11T15:34:22.802Z,56.19
2023-05-11T15:36:04.479Z,55.59
2023-05-11T15:37:45.881Z,55.26
2023-05-11T15:39:27.193Z,55.07
2023-05-11T15:41:08.565Z,53.54
2023-05-11T15:42:49.877Z,53.19
2023-05-11T15:44:31.227Z,53.50
2023-05-11T15:46:13.310Z,53.65
2023-05-11T15:47:54.953Z,53.95
2023-05-11T15:49:36.471Z,53.28
2023-05-11T15:51:18.128Z,52.45
2023-05-11T15:52:59.657Z,53.05
2023-05-11T15:54:40.969Z,53.30
2023-05-11T15:56:22.480Z,53.60
2023-05-11T15:58:03.916Z,53.65
2023-05-11T15:59:45.236Z,54.65
2023-05-11T16:01:26.620Z,53.49
2023-05-11T16:03:08.116Z,52.88
2023-05-11T16:04:49.480Z,52.95
2023-05-11T16:06:30.790Z,53.90
2023-05-11T16:08:12.695Z,54.93
2023-05-11T16:09:54.196Z,55.57
2023-05-11T16:11:35.567Z,56.60
2023-05-11T16:13:16.884Z,57.73
2023-05-11T16:14:58.914Z,57.50
2023-05-11T16:16:40.503Z,58.28
2023-05-11T16:18:21.998Z,57.53
2023-05-11T16:20:03.406Z,59.09
2023-05-11T16:21:44.714Z,60.85
2023-05-11T16:23:26.025Z,62.31
2023-05-11T16:25:07.325Z,63.70
2023-05-11T16:26:48.635Z,64.06
2023-05-11T16:28:29.929Z,64.07
2023-05-11T16:30:22.318Z,64.22
2023-05-11T16:32:05.258Z,64.61
2023-05-11T16:33:47.207Z,66.52
2023-05-11T16:35:28.631Z,66.05
2023-05-11T16:37:09.941Z,66.80
2023-05-11T16:38:51.289Z,66.23
2023-05-11T16:40:32.671Z,66.39
2023-05-11T16:42:14.115Z,65.21
2023-05-11T16:43:55.408Z,65.24
2023-05-11T16:45:37.417Z,64.92
2023-05-11T16:47:18.926Z,64.28
2023-05-11T16:49:00.209Z,63.28
2023-05-11T16:50:41.687Z,63.20
2023-05-11T16:52:23.223Z,62.86
2023-05-11T16:54:04.557Z,62.99
2023-05-11T16:55:46.032Z,62.04
2023-05-11T16:57:27.550Z,62.17
2023-05-11T16:59:08.907Z,64.09
2023-05-11T17:00:50.218Z,62.71
2023-05-11T17:02:31.587Z,61.03
2023-05-11T17:04:13.065Z,61.64
2023-05-11T17:05:54.724Z,60.88
2023-05-11T17:07:36.134Z,60.11
2023-05-11T17:09:17.477Z,57.89
2023-05-11T17:10:58.879Z,57.59
2023-05-11T17:12:40.270Z,57.70
2023-05-11T17:14:21.588Z,56.69
2023-05-11T17:16:02.933Z,55.63
2023-05-11T17:17:44.327Z,56.92
2023-05-11T17:19:25.706Z,54.13
2023-05-11T17:21:07.038Z,55.34
2023-05-11T17:22:48.319Z,56.00
2023-05-11T17:24:29.653Z,56.02
2023-05-11T17:26:11.201Z,57.97
2023-05-11T17:27:52.810Z,56.06
2023-05-11T17:29:34.117Z,56.00
2023-05-11T17:31:15.527Z,54.98
2023-05-11T17:32:57.174Z,57.05
2023-05-11T17:34:39.345Z,54.32
2023-05-11T17:36:21.119Z,56.28
2023-05-11T17:38:02.606Z,55.66
2023-05-11T17:39:45.047Z,57.99
2023-05-11T17:41:28.052Z,60.18
2023-05-11T17:43:09.593Z,59.03
2023-05-11T17:44:50.878Z,61.01
2023-05-11T17:46:32.357Z,61.35
2023-05-11T17:48:13.826Z,58.08
2023-05-11T17:49:55.169Z,57.96
2023-05-11T17:51:36.495Z,60.17
2023-05-11T17:53:18.580Z,61.07
2023-05-11T17:55:00.154Z,59.77
2023-05-11T17:56:41.441Z,57.97
2023-05-11T17:58:22.830Z,56.90
2023-05-11T18:00:04.110Z,57.13
2023-05-11T18:01:45.451Z,57.25
2023-05-11T18:03:27.879Z,58.43
2023-05-11T18:05:09.631Z,57.94
2023-05-11T18:06:51.069Z,59.32
2023-05-11T18:08:32.379Z,58.53
2023-05-11T18:10:13.676Z,58.07
2023-05-11T18:11:55.332Z,57.94
2023-05-11T18:13:37.104Z,57.32
2023-05-11T18:15:18.593Z,57.33
2023-05-11T18:16:59.919Z,56.68
2023-05-11T18:18:41.448Z,57.84
2023-05-11T18:20:22.865Z,57.63
2023-05-11T18:22:04.363Z,57.68
2023-05-11T18:23:45.854Z,57.56
2023-05-11T18:25:27.203Z,57.14
2023-05-11T18:27:08.554Z,55.84
2023-05-11T18:28:49.913Z,56.51
2023-05-11T18:30:31.910Z,56.30
2023-05-11T18:32:13.473Z,55.49
2023-05-11T18:33:54.783Z,56.98
2023-05-11T18:35:36.108Z,57.22
2023-05-11T18:37:17.829Z,58.14
2023-05-11T18:38:59.252Z,58.08
2023-05-11T18:40:40.511Z,58.49
2023-05-11T18:42:22.029Z,57.96
2023-05-11T18:44:03.569Z,57.15
2023-05-11T18:45:44.856Z,56.24
2023-05-11T18:47:26.220Z,55.83
2023-05-11T18:49:07.585Z,56.61
2023-05-11T18:50:48.910Z,55.88
2023-05-11T18:52:30.475Z,55.67
2023-05-11T18:54:11.791Z,55.24
2023-05-11T18:55:53.869Z,54.75
2023-05-11T18:57:35.381Z,54.89
2023-05-11T18:59:16.700Z,54.49
2023-05-11T19:00:58.693Z,55.18
2023-05-11T19:02:40.614Z,55.66
2023-05-11T19:04:21.973Z,56.83
2023-05-11T19:06:03.243Z,56.68
2023-05-11T19:07:45.178Z,56.47
2023-05-11T19:09:26.735Z,56.27
2023-05-11T19:11:08.242Z,55.96
2023-05-11T19:12:49.590Z,56.62
2023-05-11T19:14:31.250Z,55.82
2023-05-11T19:16:12.895Z,55.73
2023-05-11T19:17:54.243Z,56.47
2023-05-11T19:19:35.593Z,56.21
2023-05-11T19:21:17.191Z,56.12
2023-05-11T19:22:58.698Z,55.75
2023-05-11T19:24:40.089Z,55.94
2023-05-11T19:26:21.442Z,56.95
2023-05-11T19:28:02.756Z,58.55
2023-05-11T19:29:44.040Z,60.38
2023-05-11T19:31:25.419Z,61.65
2023-05-11T19:33:07.532Z,61.63
2023-05-11T19:34:49.098Z,60.85
2023-05-11T19:36:30.423Z,60.27
2023-05-11T19:38:11.716Z,60.42
2023-05-11T19:39:52.999Z,60.43
2023-05-11T19:41:34.342Z,61.08
2023-05-11T19:43:15.645Z,60.07
2023-05-11T19:44:57.164Z,59.93
2023-05-11T19:46:38.810Z,59.27
2023-05-11T19:48:20.152Z,58.62
2023-05-11T19:50:01.470Z,59.38
2023-05-11T19:51:42.788Z,58.20
2023-05-11T19:53:24.093Z,58.66
2023-05-11T19:55:05.408Z,58.60
2023-05-11T19:56:46.712Z,59.01
2023-05-11T19:58:28.244Z,58.81
2023-05-11T20:00:09.798Z,59.79
2023-05-11T20:01:51.242Z,58.22
2023-05-11T20:03:32.653Z,57.28
2023-05-11T20:05:14.118Z,56.89
2023-05-11T20:06:55.412Z,56.29
2023-05-11T20:08:36.697Z,57.08
2023-05-11T20:10:19.057Z,57.81
2023-05-11T20:12:00.689Z,57.52
2023-05-11T20:13:42.035Z,56.79
2023-05-11T20:15:23.385Z,57.51
2023-05-11T20:17:04.684Z,57.43
2023-05-11T20:18:46.022Z,57.09
2023-05-11T20:20:27.657Z,57.48
2023-05-11T20:22:09.348Z,56.98
2023-05-11T20:23:50.896Z,56.91
2023-05-11T20:25:32.240Z,56.98
2023-05-11T20:27:13.533Z,56.19
2023-05-11T20:28:54.818Z,56.08
2023-05-11T20:30:36.135Z,55.80
2023-05-11T20:32:17.427Z,55.61
2023-05-11T20:35:43.359Z,55.66
2023-05-11T20:37:24.672Z,55.55
2023-05-11T20:39:05.948Z,57.38
2023-05-11T20:40:47.268Z,57.38
2023-05-11T20:42:28.627Z,56.85
2023-05-11T20:44:09.946Z,57.00
2023-05-11T20:45:51.383Z,57.34
2023-05-11T20:47:32.798Z,56.85
2023-05-11T20:49:14.190Z,57.02
2023-05-11T20:50:56.869Z,56.28
2023-05-11T20:52:38.208Z,55.65
2023-05-11T20:54:19.592Z,55.41
2023-05-11T20:56:02.804Z,55.11
2023-05-11T20:57:44.590Z,55.10
2023-05-11T21:01:10.968Z,55.76
2023-05-11T21:02:52.413Z,56.17
2023-05-11T21:04:33.760Z,57.17
2023-05-11T21:06:15.074Z,57.29
2023-05-11T21:07:56.436Z,57.88
2023-05-11T21:09:38.027Z,59.21
2023-05-11T21:11:19.604Z,60.15
2023-05-11T21:13:01.115Z,60.70
2023-05-11T21:14:42.432Z,60.53
2023-05-11T21:16:23.831Z,59.17
2023-05-11T21:18:05.233Z,58.84
2023-05-11T21:19:46.572Z,58.64
2023-05-11T21:21:27.849Z,59.27
2023-05-11T21:23:09.915Z,59.39
2023-05-11T21:24:51.512Z,59.14
2023-05-11T21:26:32.846Z,58.94
2023-05-11T21:28:14.196Z,58.10
2023-05-11T21:29:55.499Z,57.37
2023-05-11T21:31:37.067Z,57.02
2023-05-11T21:33:18.909Z,57.22
2023-05-11T21:35:00.458Z,58.67
2023-05-11T21:36:41.884Z,58.77
2023-05-11T21:38:23.357Z,57.76
2023-05-11T21:40:04.788Z,57.46
2023-05-11T21:41:46.107Z,57.53
2023-05-11T21:43:27.394Z,58.39
2023-05-11T21:45:08.665Z,57.77
2023-05-11T21:46:49.974Z,57.25
2023-05-11T21:48:32.137Z,57.96
2023-05-11T21:50:13.687Z,59.07
2023-05-11T21:51:54.976Z,59.32